sensor_id;sensor_type;location;lat;lon;timestamp;P1;durP1;ratioP1;P2;durP2;ratioP2
77168;SDS011;66281;45.114;20.730;2023-09-08T00:02:14;16.52;;;11.02;;
77168;SDS011;66281;45.114;20.730;2023-09-08T00:12:16;22.37;;;12.13;;
77168;SDS011;66281;45.114;20.730;2023-09-08T00:22:17;22.23;;;11.27;;
77168;SDS011;66281;45.114;20.730;2023-09-08T00:32:18;17.00;;;9.70;;
77168;SDS011;66281;45.114;20.730;2023-09-08T00:42:19;12.33;;;7.97;;
77168;SDS011;66281;45.114;20.730;2023-09-08T00:52:19;8.73;;;6.33;;
77168;SDS011;66281;45.114;20.730;2023-09-08T01:02:20;8.67;;;5.73;;
77168;SDS011;66281;45.114;20.730;2023-09-08T01:12:21;7.55;;;5.03;;
77168;SDS011;66281;45.114;20.730;2023-09-08T01:32:24;7.93;;;4.60;;
77168;SDS011;66281;45.114;20.730;2023-09-08T01:42:26;6.95;;;5.22;;
77168;SDS011;66281;45.114;20.730;2023-09-08T01:52:27;4.90;;;4.33;;
77168;SDS011;66281;45.114;20.730;2023-09-08T02:02:28;5.23;;;4.13;;
77168;SDS011;66281;45.114;20.730;2023-09-08T02:12:29;5.80;;;4.53;;
77168;SDS011;66281;45.114;20.730;2023-09-08T02:22:30;5.17;;;3.80;;
77168;SDS011;66281;45.114;20.730;2023-09-08T02:32:30;4.80;;;3.70;;
77168;SDS011;66281;45.114;20.730;2023-09-08T02:42:31;10.35;;;4.40;;
77168;SDS011;66281;45.114;20.730;2023-09-08T02:52:32;7.40;;;3.90;;
77168;SDS011;66281;45.114;20.730;2023-09-08T03:02:33;6.03;;;4.83;;
77168;SDS011;66281;45.114;20.730;2023-09-08T03:12:34;10.07;;;4.60;;
77168;SDS011;66281;45.114;20.730;2023-09-08T03:22:35;10.98;;;4.03;;
77168;SDS011;66281;45.114;20.730;2023-09-08T03:32:36;5.23;;;3.67;;
77168;SDS011;66281;45.114;20.730;2023-09-08T03:42:38;8.23;;;4.73;;
77168;SDS011;66281;45.114;20.730;2023-09-08T03:52:39;8.00;;;4.63;;
77168;SDS011;66281;45.114;20.730;2023-09-08T04:02:41;9.38;;;5.05;;
77168;SDS011;66281;45.114;20.730;2023-09-08T04:12:42;26.70;;;6.43;;
77168;SDS011;66281;45.114;20.730;2023-09-08T04:22:43;36.53;;;5.93;;
77168;SDS011;66281;45.114;20.730;2023-09-08T04:32:43;15.40;;;5.40;;
77168;SDS011;66281;45.114;20.730;2023-09-08T04:42:44;13.70;;;5.35;;
77168;SDS011;66281;45.114;20.730;2023-09-08T04:52:46;8.37;;;4.50;;
77168;SDS011;66281;45.114;20.730;2023-09-08T05:02:47;7.77;;;4.90;;
77168;SDS011;66281;45.114;20.730;2023-09-08T05:12:47;7.33;;;4.50;;
77168;SDS011;66281;45.114;20.730;2023-09-08T05:22:49;9.35;;;4.20;;
77168;SDS011;66281;45.114;20.730;2023-09-08T05:32:51;11.13;;;4.87;;
77168;SDS011;66281;45.114;20.730;2023-09-08T05:42:52;13.40;;;5.90;;
77168;SDS011;66281;45.114;20.730;2023-09-08T05:52:53;17.23;;;7.53;;
77168;SDS011;66281;45.114;20.730;2023-09-08T06:02:54;15.43;;;6.57;;
77168;SDS011;66281;45.114;20.730;2023-09-08T06:12:55;9.33;;;4.80;;
77168;SDS011;66281;45.114;20.730;2023-09-08T06:22:56;5.07;;;3.88;;
77168;SDS011;66281;45.114;20.730;2023-09-08T06:32:57;5.53;;;3.70;;
77168;SDS011;66281;45.114;20.730;2023-09-08T06:42:58;11.10;;;3.47;;
77168;SDS011;66281;45.114;20.730;2023-09-08T06:53:10;7.47;;;4.03;;
77168;SDS011;66281;45.114;20.730;2023-09-08T07:03:13;6.17;;;4.17;;
77168;SDS011;66281;45.114;20.730;2023-09-08T07:13:14;4.80;;;4.10;;
77168;SDS011;66281;45.114;20.730;2023-09-08T07:23:17;6.80;;;4.53;;
77168;SDS011;66281;45.114;20.730;2023-09-08T07:33:19;4.70;;;3.63;;
77168;SDS011;66281;45.114;20.730;2023-09-08T07:43:20;4.37;;;3.90;;
77168;SDS011;66281;45.114;20.730;2023-09-08T07:53:21;5.00;;;3.40;;
77168;SDS011;66281;45.114;20.730;2023-09-08T08:03:22;8.60;;;3.93;;
77168;SDS011;66281;45.114;20.730;2023-09-08T08:13:23;5.77;;;3.90;;
77168;SDS011;66281;45.114;20.730;2023-09-08T08:23:23;4.33;;;3.33;;
77168;SDS011;66281;45.114;20.730;2023-09-08T08:33:24;6.87;;;4.10;;
77168;SDS011;66281;45.114;20.730;2023-09-08T08:43:26;4.63;;;3.80;;
77168;SDS011;66281;45.114;20.730;2023-09-08T08:53:26;4.63;;;4.07;;
77168;SDS011;66281;45.114;20.730;2023-09-08T09:03:28;5.28;;;3.75;;
77168;SDS011;66281;45.114;20.730;2023-09-08T09:13:29;26.10;;;5.17;;
77168;SDS011;66281;45.114;20.730;2023-09-08T09:23:31;16.57;;;5.10;;
77168;SDS011;66281;45.114;20.730;2023-09-08T09:33:32;22.80;;;5.73;;
77168;SDS011;66281;45.114;20.730;2023-09-08T09:43:33;6.07;;;3.57;;
77168;SDS011;66281;45.114;20.730;2023-09-08T09:53:34;5.30;;;4.20;;
77168;SDS011;66281;45.114;20.730;2023-09-08T10:03:35;7.13;;;4.00;;
77168;SDS011;66281;45.114;20.730;2023-09-08T10:13:39;8.67;;;3.93;;
77168;SDS011;66281;45.114;20.730;2023-09-08T10:23:50;5.07;;;3.47;;
77168;SDS011;66281;45.114;20.730;2023-09-08T10:34:08;6.63;;;4.65;;
77168;SDS011;66281;45.114;20.730;2023-09-08T10:44:10;4.77;;;4.37;;
77168;SDS011;66281;45.114;20.730;2023-09-08T10:54:40;4.43;;;4.03;;
77168;SDS011;66281;45.114;20.730;2023-09-08T11:04:45;4.43;;;3.60;;
77168;SDS011;66281;45.114;20.730;2023-09-08T11:14:46;3.77;;;3.47;;
77168;SDS011;66281;45.114;20.730;2023-09-08T11:24:47;4.60;;;4.10;;
77168;SDS011;66281;45.114;20.730;2023-09-08T11:34:48;7.60;;;4.03;;
77168;SDS011;66281;45.114;20.730;2023-09-08T11:44:49;5.47;;;4.17;;
77168;SDS011;66281;45.114;20.730;2023-09-08T11:54:51;8.53;;;4.80;;
77168;SDS011;66281;45.114;20.730;2023-09-08T12:04:53;4.88;;;3.88;;
77168;SDS011;66281;45.114;20.730;2023-09-08T12:14:54;4.80;;;3.70;;
77168;SDS011;66281;45.114;20.730;2023-09-08T12:24:56;5.47;;;4.87;;
77168;SDS011;66281;45.114;20.730;2023-09-08T12:34:58;6.72;;;3.80;;
77168;SDS011;66281;45.114;20.730;2023-09-08T12:45:00;6.00;;;4.67;;
77168;SDS011;66281;45.114;20.730;2023-09-08T12:55:01;6.73;;;5.37;;
77168;SDS011;66281;45.114;20.730;2023-09-08T13:05:02;8.07;;;5.10;;
77168;SDS011;66281;45.114;20.730;2023-09-08T13:15:04;6.07;;;4.32;;
77168;SDS011;66281;45.114;20.730;2023-09-08T13:25:05;6.50;;;4.53;;
77168;SDS011;66281;45.114;20.730;2023-09-08T13:35:06;5.10;;;4.60;;
77168;SDS011;66281;45.114;20.730;2023-09-08T13:45:07;5.53;;;4.80;;
77168;SDS011;66281;45.114;20.730;2023-09-08T13:55:08;5.10;;;4.60;;
77168;SDS011;66281;45.114;20.730;2023-09-08T14:05:10;5.77;;;4.87;;
77168;SDS011;66281;45.114;20.730;2023-09-08T14:15:11;5.53;;;4.63;;
77168;SDS011;66281;45.114;20.730;2023-09-08T14:25:15;8.73;;;5.10;;
77168;SDS011;66281;45.114;20.730;2023-09-08T14:35:16;9.13;;;5.33;;
77168;SDS011;66281;45.114;20.730;2023-09-08T14:45:17;6.67;;;4.10;;
77168;SDS011;66281;45.114;20.730;2023-09-08T14:55:18;9.33;;;4.33;;
77168;SDS011;66281;45.114;20.730;2023-09-08T15:05:18;7.80;;;4.70;;
77168;SDS011;66281;45.114;20.730;2023-09-08T15:15:19;18.13;;;4.77;;
77168;SDS011;66281;45.114;20.730;2023-09-08T15:25:24;6.13;;;4.18;;
77168;SDS011;66281;45.114;20.730;2023-09-08T15:35:24;5.40;;;4.30;;
77168;SDS011;66281;45.114;20.730;2023-09-08T15:45:27;7.53;;;5.20;;
77168;SDS011;66281;45.114;20.730;2023-09-08T15:55:28;10.93;;;5.60;;
77168;SDS011;66281;45.114;20.730;2023-09-08T16:05:28;6.60;;;4.33;;
77168;SDS011;66281;45.114;20.730;2023-09-08T16:15:30;10.25;;;5.20;;
77168;SDS011;66281;45.114;20.730;2023-09-08T16:25:31;7.40;;;4.50;;
77168;SDS011;66281;45.114;20.730;2023-09-08T16:35:34;20.40;;;5.90;;
77168;SDS011;66281;45.114;20.730;2023-09-08T16:45:36;25.33;;;6.30;;
77168;SDS011;66281;45.114;20.730;2023-09-08T16:55:36;19.67;;;5.57;;
77168;SDS011;66281;45.114;20.730;2023-09-08T17:05:37;17.17;;;5.30;;
77168;SDS011;66281;45.114;20.730;2023-09-08T17:15:38;14.97;;;5.50;;
77168;SDS011;66281;45.114;20.730;2023-09-08T17:25:39;20.40;;;5.97;;
77168;SDS011;66281;45.114;20.730;2023-09-08T17:35:39;16.87;;;5.53;;
77168;SDS011;66281;45.114;20.730;2023-09-08T17:45:40;21.90;;;6.23;;
77168;SDS011;66281;45.114;20.730;2023-09-08T17:55:41;28.67;;;6.67;;
77168;SDS011;66281;45.114;20.730;2023-09-08T18:05:42;38.30;;;8.10;;
77168;SDS011;66281;45.114;20.730;2023-09-08T18:15:43;50.97;;;8.43;;
77168;SDS011;66281;45.114;20.730;2023-09-08T18:25:44;47.17;;;8.53;;
77168;SDS011;66281;45.114;20.730;2023-09-08T18:35:45;32.40;;;7.23;;
77168;SDS011;66281;45.114;20.730;2023-09-08T18:45:46;27.43;;;6.63;;
77168;SDS011;66281;45.114;20.730;2023-09-08T18:55:46;25.00;;;6.60;;
77168;SDS011;66281;45.114;20.730;2023-09-08T19:05:47;18.87;;;5.90;;
77168;SDS011;66281;45.114;20.730;2023-09-08T19:15:48;18.23;;;6.68;;
77168;SDS011;66281;45.114;20.730;2023-09-08T19:25:49;16.30;;;6.93;;
77168;SDS011;66281;45.114;20.730;2023-09-08T19:35:50;45.60;;;8.90;;
77168;SDS011;66281;45.114;20.730;2023-09-08T19:45:51;14.40;;;6.50;;
77168;SDS011;66281;45.114;20.730;2023-09-08T19:55:52;14.87;;;6.70;;
77168;SDS011;66281;45.114;20.730;2023-09-08T20:05:53;12.77;;;5.90;;
77168;SDS011;66281;45.114;20.730;2023-09-08T20:15:58;13.40;;;6.33;;
77168;SDS011;66281;45.114;20.730;2023-09-08T20:26:06;11.80;;;5.67;;
77168;SDS011;66281;45.114;20.730;2023-09-08T20:36:07;6.73;;;4.70;;
77168;SDS011;66281;45.114;20.730;2023-09-08T20:46:08;5.40;;;4.50;;
77168;SDS011;66281;45.114;20.730;2023-09-08T20:56:09;5.57;;;4.23;;
77168;SDS011;66281;45.114;20.730;2023-09-08T21:06:10;6.17;;;4.47;;
77168;SDS011;66281;45.114;20.730;2023-09-08T21:16:12;10.30;;;5.13;;
77168;SDS011;66281;45.114;20.730;2023-09-08T21:26:13;8.73;;;4.80;;
77168;SDS011;66281;45.114;20.730;2023-09-08T21:36:16;5.77;;;5.00;;
77168;SDS011;66281;45.114;20.730;2023-09-08T21:46:17;5.40;;;4.53;;
77168;SDS011;66281;45.114;20.730;2023-09-08T21:56:18;7.30;;;4.67;;
77168;SDS011;66281;45.114;20.730;2023-09-08T22:06:18;8.00;;;5.67;;
77168;SDS011;66281;45.114;20.730;2023-09-08T22:16:19;7.77;;;5.23;;
77168;SDS011;66281;45.114;20.730;2023-09-08T22:26:20;8.37;;;5.97;;
77168;SDS011;66281;45.114;20.730;2023-09-08T22:36:21;7.40;;;5.57;;
77168;SDS011;66281;45.114;20.730;2023-09-08T22:46:21;10.27;;;5.60;;
77168;SDS011;66281;45.114;20.730;2023-09-08T22:56:22;8.50;;;4.97;;
77168;SDS011;66281;45.114;20.730;2023-09-08T23:06:23;7.67;;;6.60;;
77168;SDS011;66281;45.114;20.730;2023-09-08T23:16:24;7.23;;;5.80;;
77168;SDS011;66281;45.114;20.730;2023-09-08T23:26:24;12.47;;;5.53;;
77168;SDS011;66281;45.114;20.730;2023-09-08T23:36:26;6.47;;;5.13;;
77168;SDS011;66281;45.114;20.730;2023-09-08T23:46:28;7.17;;;4.20;;
77168;SDS011;66281;45.114;20.730;2023-09-08T23:56:29;5.17;;;4.23;;
